Time;durP1;ratioP1;P1;durP2;ratioP2;P2;SDS_P1;SDS_P2;PMS_P1;PMS_P2;Temp;Humidity;BMP_temperature;BMP_pressure;BME280_temperature;BME280_humidity;BME280_pressure;Samples;Min_cycle;Max_cycle;Signal;HPM_P1;HPM_P2
2022/06/04 00:00:39;;;;;;;12.68;9.90;;;563.30;2432.00;;;;;;5030978;28;20098;-57
2022/06/04 00:03:05;;;;;;;16.10;11.13;;;563.30;2432.00;;;;;;5030876;28;20464;-59
2022/06/04 00:05:34;;;;;;;13.32;9.65;;;563.30;2432.00;;;;;;5031020;28;20395;-54
2022/06/04 00:08:02;;;;;;;10.77;9.63;;;563.30;2432.00;;;;;;5030738;28;20026;-56
2022/06/04 00:16:05;;;;;;;12.23;9.20;;;563.40;2432.00;;;;;;5030931;28;20041;-56
2022/06/04 00:18:31;;;;;;;10.23;7.85;;;563.40;2432.00;;;;;;5030695;28;20383;-56
2022/06/04 00:20:57;;;;;;;10.73;8.13;;;563.40;2432.00;;;;;;5030600;28;20029;-58
2022/06/04 00:23:23;;;;;;;12.90;9.93;;;563.30;2432.00;;;;;;5030554;28;20536;-56
2022/06/04 00:25:56;;;;;;;11.48;9.32;;;563.30;2432.00;;;;;;5030654;28;20040;-56
2022/06/04 00:28:23;;;;;;;8.88;6.85;;;563.40;2432.00;;;;;;5030433;28;20399;-59
2022/06/04 00:30:50;;;;;;;8.48;6.82;;;563.60;2432.00;;;;;;5030489;28;20079;-56
2022/06/04 00:33:16;;;;;;;8.27;6.78;;;563.70;2432.00;;;;;;5030517;28;20032;-59
2022/06/04 00:35:44;;;;;;;7.53;5.25;;;563.60;2432.00;;;;;;5030305;28;20061;-56
2022/06/04 00:38:14;;;;;;;7.65;5.95;;;563.90;2432.00;;;;;;5030115;28;20045;-55
2022/06/04 00:41:13;;;;;;;7.70;6.10;;;564.10;2432.00;;;;;;5030227;28;20045;-56
2022/06/04 00:44:10;;;;;;;8.90;7.25;;;564.10;2432.00;;;;;;5030144;28;20033;-56
2022/06/04 00:46:42;;;;;;;10.52;7.60;;;563.90;2432.00;;;;;;5030477;28;20017;-59
2022/06/04 00:49:13;;;;;;;9.52;7.35;;;563.70;2432.00;;;;;;5030188;28;20026;-57
2022/06/04 00:51:40;;;;;;;10.60;7.25;;;563.70;2432.00;;;;;;5030127;28;20492;-55
2022/06/04 00:54:07;;;;;;;11.57;7.03;;;563.70;2432.00;;;;;;5030543;28;20034;-59
2022/06/04 00:56:57;;;;;;;13.60;8.13;;;563.70;2432.00;;;;;;5030290;28;20102;-55
2022/06/04 00:59:26;;;;;;;11.20;7.97;;;563.60;2432.00;;;;;;5029880;28;20891;-60
2022/06/04 01:01:51;;;;;;;8.55;6.55;;;563.50;2432.00;;;;;;5029821;28;20021;-55
2022/06/04 01:04:48;;;;;;;9.55;7.05;;;563.50;2432.00;;;;;;5030128;28;20383;-56
2022/06/04 01:07:31;;;;;;;9.68;7.15;;;563.50;2432.00;;;;;;5029782;28;20022;-59
2022/06/04 01:10:07;;;;;;;;;;;563.40;2432.00;;;;;;5030496;28;20393;-60
2022/06/04 01:12:57;;;;;;;10.50;8.52;;;563.50;2432.00;;;;;;5029856;28;19909;-56
2022/06/04 01:15:39;;;;;;;10.75;8.77;;;563.40;2432.00;;;;;;5029741;28;20079;-61
2022/06/04 01:18:12;;;;;;;12.40;9.77;;;563.40;2432.00;;;;;;5029889;28;20504;-60
2022/06/04 01:20:40;;;;;;;13.02;9.95;;;563.40;2432.00;;;;;;5029936;28;20138;-60
2022/06/04 01:23:33;;;;;;;12.02;9.43;;;563.60;2432.00;;;;;;5030170;28;20021;-60
2022/06/04 01:26:05;;;;;;;12.85;10.07;;;563.60;2432.00;;;;;;5029916;28;20056;-59
2022/06/04 01:28:33;;;;;;;14.38;9.50;;;563.60;2432.00;;;;;;5029620;28;20072;-57
2022/06/04 01:31:03;;;;;;;14.57;10.27;;;563.60;2432.00;;;;;;5029815;28;20025;-58
2022/06/04 01:33:35;;;;;;;13.98;10.90;;;563.60;2432.00;;;;;;5029948;28;20518;-55
2022/06/04 01:36:32;;;;;;;11.75;9.00;;;563.60;2432.00;;;;;;5029504;28;20386;-55
2022/06/04 01:39:08;;;;;;;11.50;9.23;;;563.60;2432.00;;;;;;5029492;28;20084;-56
2022/06/04 01:41:43;;;;;;;12.93;9.88;;;563.60;2432.00;;;;;;5029647;28;20041;-56
2022/06/04 01:44:19;;;;;;;12.10;9.63;;;563.60;2432.00;;;;;;5029775;28;20555;-56
2022/06/04 01:46:51;;;;;;;14.98;10.55;;;563.60;2432.00;;;;;;5029462;28;20033;-56
2022/06/04 01:49:25;;;;;;;13.75;11.10;;;563.70;2432.00;;;;;;5029742;28;20025;-59
2022/06/04 01:51:56;;;;;;;14.30;10.95;;;563.70;2432.00;;;;;;5029294;28;20391;-55
2022/06/04 01:54:36;;;;;;;13.30;10.63;;;563.70;2432.00;;;;;;5032421;28;20018;-55
2022/06/04 01:57:18;;;;;;;15.25;10.95;;;563.60;2432.00;;;;;;5033313;28;20049;-56
2022/06/04 01:59:54;;;;;;;12.35;10.30;;;563.60;2432.00;;;;;;5033102;28;20037;-56
2022/06/04 02:02:31;;;;;;;14.48;10.35;;;563.50;2432.00;;;;;;5033222;28;20045;-55
2022/06/04 02:05:01;;;;;;;16.35;11.00;;;563.60;2432.00;;;;;;5033168;28;20068;-55
2022/06/04 02:07:35;;;;;;;13.48;11.05;;;563.50;2432.00;;;;;;5033153;28;20365;-55
2022/06/04 02:10:15;;;;;;;13.98;11.18;;;563.40;2432.00;;;;;;5032964;28;20061;-54
2022/06/04 02:12:44;;;;;;;16.52;10.73;;;563.30;2432.00;;;;;;5032856;28;20057;-60
2022/06/04 02:15:14;;;;;;;16.05;9.07;;;563.20;2432.00;;;;;;5032968;28;20384;-56
2022/06/04 02:17:43;;;;;;;12.75;10.25;;;538.40;2406.40;;;;;;5033199;28;20017;-59
2022/06/04 02:20:10;;;;;;;12.48;9.63;;;538.40;2406.40;;;;;;5033060;28;20080;-59
2022/06/04 02:22:36;;;;;;;12.75;9.40;;;538.20;2406.40;;;;;;5033071;28;20097;-60
2022/06/04 02:25:05;;;;;;;11.85;9.73;;;538.30;2406.40;;;;;;5032735;28;20507;-56
2022/06/04 02:27:31;;;;;;;12.15;10.65;;;538.40;2406.40;;;;;;5032629;28;20060;-55
2022/06/04 02:29:57;;;;;;;12.68;9.93;;;538.40;2406.40;;;;;;5032819;28;20030;-59
2022/06/04 02:32:51;;;;;;;13.40;9.05;;;538.30;2406.40;;;;;;5032460;28;20163;-55
2022/06/04 02:35:29;;;;;;;14.00;11.00;;;538.30;2406.40;;;;;;5010595;28;20033;-57
2022/06/04 02:38:07;;;;;;;12.05;9.25;;;538.30;2406.40;;;;;;5010151;28;20095;-59
2022/06/04 02:40:53;;;;;;;10.50;8.82;;;538.30;2406.40;;;;;;5010283;28;20045;-56
2022/06/04 02:43:40;;;;;;;14.38;9.85;;;538.40;2406.40;;;;;;5010568;28;20112;-55
2022/06/04 02:46:33;;;;;;;15.38;10.68;;;538.30;2406.40;;;;;;5010541;28;20519;-59
2022/06/04 02:48:59;;;;;;;13.27;9.88;;;538.30;2406.40;;;;;;5010451;28;20038;-56
2022/06/04 02:51:35;;;;;;;12.65;9.70;;;538.30;2406.40;;;;;;5010161;28;20033;-56
2022/06/04 02:54:10;;;;;;;14.65;10.13;;;538.30;2406.40;;;;;;5010183;28;20034;-54
2022/06/04 02:56:38;;;;;;;12.80;10.35;;;538.30;2406.40;;;;;;5010496;28;20101;-54
2022/06/04 02:59:07;;;;;;;12.77;9.88;;;538.30;2406.40;;;;;;5010227;28;20045;-59
2022/06/04 03:01:39;;;;;;;12.13;9.43;;;538.20;2406.40;;;;;;5010067;28;20030;-56
2022/06/04 03:04:06;;;;;;;13.20;10.05;;;538.20;2406.40;;;;;;5010240;28;20026;-60
2022/06/04 03:06:33;;;;;;;12.70;9.32;;;538.20;2406.40;;;;;;5009443;28;20042;-55
2022/06/04 03:09:01;;;;;;;12.50;9.23;;;538.00;2406.40;;;;;;5010185;28;20054;-56
2022/06/04 03:11:27;;;;;;;13.05;10.80;;;538.00;2406.40;;;;;;5015857;28;20045;-56
2022/06/04 03:13:53;;;;;;;16.83;10.40;;;538.10;2406.40;;;;;;5031765;28;20018;-55
2022/06/04 03:16:19;;;;;;;12.98;9.73;;;538.10;2406.40;;;;;;5031990;28;20033;-56
2022/06/04 03:18:45;;;;;;;14.70;9.75;;;538.20;2406.40;;;;;;5031583;28;20468;-55
2022/06/04 03:21:11;;;;;;;10.50;7.72;;;538.20;2406.40;;;;;;5031321;28;20452;-56
2022/06/04 03:23:38;;;;;;;10.55;7.78;;;538.20;2406.40;;;;;;5032044;28;20061;-55
2022/06/04 03:26:04;;;;;;;11.98;8.75;;;538.20;2406.40;;;;;;5031631;28;20022;-58
2022/06/04 03:28:30;;;;;;;9.23;6.82;;;538.20;2406.40;;;;;;5031758;28;20026;-60
2022/06/04 03:30:56;;;;;;;13.50;8.38;;;538.20;2406.40;;;;;;5031404;28;20029;-59
2022/06/04 03:33:22;;;;;;;8.63;6.85;;;538.30;2406.40;;;;;;5031568;28;20025;-59
2022/06/04 03:35:48;;;;;;;10.82;6.90;;;538.30;2406.40;;;;;;5031543;28;20026;-60
2022/06/04 03:38:14;;;;;;;10.32;6.32;;;538.40;2406.40;;;;;;5031187;28;20450;-60
2022/06/04 03:40:40;;;;;;;8.25;5.90;;;538.50;2406.40;;;;;;5031370;28;20045;-59
2022/06/04 03:43:05;;;;;;;9.20;5.88;;;563.20;2432.00;;;;;;5031480;28;20021;-60
2022/06/04 03:45:31;;;;;;;7.95;6.20;;;563.20;2432.00;;;;;;5031120;28;20021;-58
2022/06/04 03:47:57;;;;;;;10.05;6.10;;;563.30;2432.00;;;;;;5031539;28;20026;-55
2022/06/04 03:50:29;;;;;;;8.57;6.75;;;563.40;2432.00;;;;;;5031264;28;20022;-59
2022/06/04 03:52:55;;;;;;;7.85;5.40;;;563.60;2432.00;;;;;;5030800;28;20029;-57
2022/06/04 03:55:21;;;;;;;10.98;6.63;;;563.60;2432.00;;;;;;5030826;28;20148;-55
2022/06/04 03:57:48;;;;;;;9.68;6.32;;;563.90;2432.00;;;;;;5030974;28;20033;-59
2022/06/04 04:00:26;;;;;;;8.95;6.60;;;564.10;2432.00;;;;;;5030701;28;20095;-60
2022/06/04 04:03:05;;;;;;;13.48;6.43;;;589.10;2432.00;;;;;;5031008;28;20408;-60
2022/06/04 04:05:37;;;;;;;15.25;7.28;;;589.30;2432.00;;;;;;5030881;28;20379;-56
2022/06/04 04:08:05;;;;;;;10.93;7.10;;;589.30;2432.00;;;;;;5030705;28;20022;-60
2022/06/04 04:10:31;;;;;;;9.80;6.57;;;589.20;2432.00;;;;;;5030782;28;20075;-57
2022/06/04 04:12:58;;;;;;;11.88;7.03;;;589.30;2432.00;;;;;;5030760;28;20017;-60
2022/06/04 04:15:24;;;;;;;11.10;7.72;;;589.30;2432.00;;;;;;5030773;28;20052;-60
2022/06/04 04:17:51;;;;;;;10.38;6.53;;;589.50;2432.00;;;;;;5030044;28;20097;-59
2022/06/04 04:20:19;;;;;;;9.25;7.90;;;589.60;2432.00;;;;;;5030744;28;20034;-56
2022/06/04 04:22:45;;;;;;;8.70;6.47;;;589.60;2432.00;;;;;;5030480;28;20021;-56
2022/06/04 04:25:13;;;;;;;9.57;6.38;;;589.70;2432.00;;;;;;5030372;28;20029;-58
2022/06/04 04:27:39;;;;;;;8.23;6.80;;;614.40;2432.00;;;;;;5030596;28;20032;-57
2022/06/04 04:30:11;;;;;;;10.15;6.75;;;614.50;2432.00;;;;;;5030654;28;20116;-56
2022/06/04 04:32:36;;;;;;;9.95;7.93;;;614.50;2432.00;;;;;;5030443;28;20029;-59
2022/06/04 04:35:05;;;;;;;9.68;7.68;;;614.50;2432.00;;;;;;5030199;28;20075;-59
2022/06/04 04:37:31;;;;;;;10.20;8.00;;;614.60;2432.00;;;;;;5029894;28;20056;-55
2022/06/04 04:39:57;;;;;;;8.70;6.75;;;614.80;2432.00;;;;;;5030492;28;20034;-60
2022/06/04 04:42:24;;;;;;;9.20;7.00;;;614.90;2432.00;;;;;;5030160;28;20442;-56
2022/06/04 04:44:50;;;;;;;8.57;6.13;;;615.10;2432.00;;;;;;5029043;28;20067;-59
2022/06/04 04:47:15;;;;;;;8.70;7.25;;;615.20;2432.00;;;;;;5030307;28;20026;-60
2022/06/04 04:49:41;;;;;;;7.53;6.60;;;615.30;2432.00;;;;;;5030172;28;20033;-59
2022/06/04 04:52:07;;;;;;;8.48;6.60;;;640.70;2432.00;;;;;;5030336;28;20422;-59
2022/06/04 04:54:33;;;;;;;9.18;7.00;;;691.30;2432.00;;;;;;5029993;28;20100;-60
2022/06/04 04:56:59;;;;;;;9.18;6.30;;;691.20;2432.00;;;;;;5030224;28;20109;-57
2022/06/04 04:59:25;;;;;;;7.70;6.32;;;691.20;2380.80;;;;;;5029915;28;20090;-57
2022/06/04 05:01:51;;;;;;;7.25;5.28;;;691.20;2355.20;;;;;;5029837;28;20101;-58
2022/06/04 05:04:16;;;;;;;9.85;7.18;;;666.00;2432.00;;;;;;5030218;28;20028;-60
2022/06/04 05:06:43;;;;;;;14.13;6.32;;;691.50;2432.00;;;;;;5029817;28;20480;-59
2022/06/04 05:09:10;;;;;;;7.63;6.75;;;742.80;2150.40;;;;;;5030163;28;20037;-59
2022/06/04 05:11:36;;;;;;;10.30;7.68;;;717.70;2176.00;;;;;;5030179;28;20021;-59
2022/06/04 05:14:02;;;;;;;7.25;5.90;;;793.70;1868.80;;;;;;5029869;28;20032;-60
2022/06/04 05:16:38;;;;;;;9.10;6.63;;;845.30;1664.00;;;;;;5030046;28;20040;-58
2022/06/04 05:19:05;;;;;;;8.40;6.32;;;896.10;1484.80;;;;;;5029810;28;20026;-61
2022/06/04 05:21:42;;;;;;;8.48;7.50;;;922.30;1382.40;;;;;;5029697;28;20095;-60
2022/06/04 05:24:17;;;;;;;8.55;6.65;;;973.00;1280.00;;;;;;5030001;28;20387;-57
2022/06/04 05:26:44;;;;;;;9.02;7.65;;;998.80;1254.40;;;;;;5029903;28;20367;-60
2022/06/04 05:29:10;;;;;;;9.55;7.70;;;998.90;1228.80;;;;;;5032772;28;20017;-58
2022/06/04 05:31:36;;;;;;;8.15;7.35;;;999.20;1203.20;;;;;;5034052;28;20084;-61
2022/06/04 05:34:02;;;;;;;8.75;7.97;;;1024.00;1203.20;;;;;;5033874;28;20022;-60
2022/06/04 05:36:29;;;;;;;8.38;7.57;;;1050.00;1152.00;;;;;;5033713;28;20410;-60
2022/06/04 05:38:55;;;;;;;10.70;7.70;;;1075.20;1126.40;;;;;;5033201;28;20068;-61
2022/06/04 05:41:21;;;;;;;9.40;8.50;;;1050.40;1100.80;;;;;;5033274;28;20543;-59
2022/06/04 05:43:47;;;;;;;9.15;8.35;;;1075.70;1100.80;;;;;;5033791;28;20045;-61
2022/06/04 05:46:15;;;;;;;9.70;8.90;;;1101.50;1075.20;;;;;;5033474;28;20072;-61
2022/06/04 05:48:43;;;;;;;10.13;8.93;;;1101.40;1075.20;;;;;;5033485;28;20025;-59
2022/06/04 05:51:11;;;;;;;9.70;8.90;;;1101.00;1075.20;;;;;;5033411;28;20499;-58
2022/06/04 05:53:37;;;;;;;10.02;9.15;;;1101.20;1075.20;;;;;;5033399;28;20036;-61
2022/06/04 05:56:09;;;;;;;9.75;8.95;;;1126.80;1049.60;;;;;;5033182;28;20034;-61
2022/06/04 05:58:34;;;;;;;10.20;9.38;;;1152.20;1024.00;;;;;;5033377;28;20030;-61
2022/06/04 06:01:01;;;;;;;11.23;10.40;;;1152.20;1024.00;;;;;;5033459;28;20376;-61
2022/06/04 06:03:27;;;;;;;10.45;9.55;;;1178.00;972.80;;;;;;5033228;28;20032;-61
2022/06/04 06:05:52;;;;;;;11.43;10.43;;;1203.20;972.80;;;;;;5033109;28;20419;-61
2022/06/04 06:08:18;;;;;;;10.32;9.50;;;1203.30;972.80;;;;;;5032932;28;20036;-61
2022/06/04 06:10:44;;;;;;;12.43;11.43;;;1203.70;972.80;;;;;;5033190;28;20107;-62
2022/06/04 06:13:11;;;;;;;11.60;10.02;;;1178.30;972.80;;;;;;5033069;28;20044;-61
2022/06/04 06:15:37;;;;;;;11.18;10.18;;;1203.30;947.20;;;;;;5033151;28;20020;-61
2022/06/04 06:18:05;;;;;;;11.98;10.90;;;1178.20;947.20;;;;;;5033043;28;20025;-57
2022/06/04 06:20:31;;;;;;;11.80;10.80;;;1229.40;921.60;;;;;;5032655;28;20044;-59
2022/06/04 06:22:57;;;;;;;12.10;11.15;;;1254.80;921.60;;;;;;5032816;28;20048;-59
2022/06/04 06:25:23;;;;;;;13.70;12.70;;;1254.60;921.60;;;;;;5032628;28;20022;-57
2022/06/04 06:27:49;;;;;;;11.43;10.63;;;1254.60;921.60;;;;;;5032794;28;20484;-57
2022/06/04 06:30:15;;;;;;;12.45;11.52;;;;;;;;;;5032767;28;20120;-58
2022/06/04 06:32:42;;;;;;;11.90;11.00;;;1254.80;921.60;;;;;;5032546;28;20013;-60
2022/06/04 06:35:09;;;;;;;13.43;12.43;;;1203.80;921.60;;;;;;5032739;28;20033;-57
2022/06/04 06:37:36;;;;;;;13.68;12.60;;;1228.80;921.60;;;;;;5031847;28;20049;-57
2022/06/04 06:40:04;;;;;;;9.20;8.35;;;1178.00;947.20;;;;;;5031008;28;20045;-57
2022/06/04 06:42:30;;;;;;;9.43;8.40;;;1152.00;1024.00;;;;;;5032524;28;20032;-59
2022/06/04 06:44:55;;;;;;;10.75;8.55;;;1126.60;1049.60;;;;;;5032589;28;20033;-60
2022/06/04 06:47:22;;;;;;;11.27;8.15;;;1050.10;1126.40;;;;;;5032374;28;20022;-57
2022/06/04 06:49:49;;;;;;;9.23;8.43;;;1024.90;1100.80;;;;;;5032408;28;20060;-57
2022/06/04 06:52:16;;;;;;;13.57;12.38;;;1024.10;1126.40;;;;;;5032081;28;20022;-57
2022/06/04 06:54:42;;;;;;;17.20;14.35;;;1101.70;1024.00;;;;;;5032092;28;20037;-58
2022/06/04 06:57:10;;;;;;;9.85;8.95;;;1152.90;998.40;;;;;;5032454;28;20021;-57
2022/06/04 06:59:37;;;;;;;12.05;11.15;;;1101.00;1075.20;;;;;;5032281;28;20040;-76
2022/06/04 07:02:03;;;;;;;11.93;10.90;;;1152.10;1024.00;;;;;;5032024;28;20033;-74
2022/06/04 07:04:29;;;;;;;12.82;11.93;;;1152.40;998.40;;;;;;5032037;28;20060;-66
2022/06/04 07:06:58;;;;;;;12.15;11.25;;;1203.30;947.20;;;;;;5031808;28;20021;-74
2022/06/04 07:09:32;;;;;;;12.48;11.57;;;1203.40;947.20;;;;;;5031598;28;20468;-66
2022/06/04 07:11:59;;;;;;;12.52;11.50;;;1228.80;947.20;;;;;;5031943;28;20034;-67
2022/06/04 07:14:25;;;;;;;13.32;12.35;;;1229.50;921.60;;;;;;5031855;28;20423;-66
2022/06/04 07:16:53;;;;;;;14.25;13.20;;;1254.80;896.00;;;;;;5031591;28;20033;-66
2022/06/04 07:19:21;;;;;;;13.45;12.40;;;1255.10;896.00;;;;;;5031631;28;20490;-66
2022/06/04 07:21:47;;;;;;;14.93;13.70;;;1255.30;896.00;;;;;;5031635;28;20034;-67
2022/06/04 07:24:13;;;;;;;16.25;14.82;;;1255.10;870.40;;;;;;5031509;28;20026;-70
2022/06/04 07:26:40;;;;;;;14.05;12.98;;;1254.80;896.00;;;;;;5031770;28;20053;-69
2022/06/04 07:29:07;;;;;;;12.45;11.55;;;1255.10;870.40;;;;;;5031754;28;20104;-67
2022/06/04 07:31:33;;;;;;;14.65;13.63;;;1255.30;870.40;;;;;;5031383;28;20025;-74
2022/06/04 07:33:59;;;;;;;15.10;14.00;;;1255.30;870.40;;;;;;5031473;28;20056;-74
2022/06/04 07:36:37;;;;;;;13.48;12.50;;;1255.00;870.40;;;;;;5031263;28;20034;-75
2022/06/04 07:39:05;;;;;;;15.25;14.25;;;1254.50;896.00;;;;;;5030960;28;20049;-70
2022/06/04 07:41:34;;;;;;;14.25;13.15;;;1229.40;896.00;;;;;;5031163;28;20068;-73
2022/06/04 07:43:59;;;;;;;13.13;12.23;;;1229.50;870.40;;;;;;5031152;28;20384;-73
2022/06/04 07:46:27;;;;;;;14.25;13.27;;;1229.50;870.40;;;;;;5031072;28;20026;-66
2022/06/04 07:49:01;;;;;;;12.57;11.60;;;1254.50;896.00;;;;;;5031056;28;20060;-73
2022/06/04 07:51:28;;;;;;;14.45;13.50;;;1255.00;870.40;;;;;;5030949;28;20021;-74
2022/06/04 07:53:54;;;;;;;13.68;12.85;;;1254.90;870.40;;;;;;5030884;28;20030;-74
2022/06/04 07:56:20;;;;;;;13.95;13.05;;;1255.30;870.40;;;;;;5031210;28;20021;-73
2022/06/04 07:58:46;;;;;;;13.32;12.32;;;1280.50;844.80;;;;;;5031000;28;20021;-66
2022/06/04 08:01:14;;;;;;;13.35;12.45;;;1255.10;844.80;;;;;;5030661;28;20365;-66
2022/06/04 08:03:41;;;;;;;13.20;12.23;;;1255.10;870.40;;;;;;5030940;28;20051;-73
2022/06/04 08:06:07;;;;;;;12.73;11.63;;;1254.80;870.40;;;;;;5030984;28;20056;-73
2022/06/04 08:08:34;;;;;;;14.13;12.90;;;1229.40;870.40;;;;;;5030914;28;20388;-65
2022/06/04 08:11:00;;;;;;;12.98;12.05;;;1229.20;896.00;;;;;;5030960;28;20030;-74
2022/06/04 08:13:28;;;;;;;12.50;11.50;;;1203.80;896.00;;;;;;5030800;28;20022;-75
2022/06/04 08:15:57;;;;;;;10.35;9.55;;;1152.10;972.80;;;;;;5030497;28;20021;-73
2022/06/04 08:18:23;;;;;;;9.50;8.68;;;1075.70;1024.00;;;;;;5030411;28;20028;-65
2022/06/04 08:20:49;;;;;;;9.27;8.48;;;1049.60;1100.80;;;;;;5030370;28;20037;-66
2022/06/04 08:23:14;;;;;;;9.50;8.35;;;999.00;1152.00;;;;;;5030267;28;20022;-73
2022/06/04 08:25:42;;;;;;;7.00;6.30;;;973.50;1152.00;;;;;;5030701;28;20047;-65
2022/06/04 08:28:09;;;;;;;9.57;7.43;;;948.10;1177.60;;;;;;5030610;28;20029;-72
2022/06/04 08:30:35;;;;;;;7.05;6.32;;;947.50;1177.60;;;;;;5030342;28;20040;-69
2022/06/04 08:33:01;;;;;;;8.85;7.55;;;922.40;1228.80;;;;;;5030119;28;20113;-72
2022/06/04 08:35:27;;;;;;;9.05;6.68;;;922.10;1228.80;;;;;;5030407;28;20109;-73
2022/06/04 08:37:53;;;;;;;9.23;6.93;;;922.00;1254.40;;;;;;5029746;28;20102;-72
2022/06/04 08:40:39;;;;;;;6.95;6.25;;;922.00;1254.40;;;;;;5030183;28;20434;-72
2022/06/04 08:43:16;;;;;;;9.15;6.22;;;921.60;1280.00;;;;;;5030258;28;20022;-65
2022/06/04 08:45:42;;;;;;;6.88;5.85;;;896.80;1254.40;;;;;;5030037;28;20035;-66
2022/06/04 08:48:22;;;;;;;9.13;5.88;;;921.60;1280.00;;;;;;5030349;28;20108;-71
2022/06/04 08:50:48;;;;;;;7.93;5.63;;;921.60;1305.60;;;;;;5030423;28;20029;-69
2022/06/04 08:53:20;;;;;;;6.38;4.93;;;896.50;1280.00;;;;;;5029897;28;20054;-67
2022/06/04 08:59:10;;;;;;;6.57;5.63;;;896.60;1254.40;;;;;;5008500;28;20084;-73
2022/06/04 09:01:56;;;;;;;6.93;5.50;;;896.30;1305.60;;;;;;5008461;28;20472;-67
2022/06/04 09:05:02;;;;;;;6.13;5.30;;;896.00;1305.60;;;;;;5007431;28;20033;-68
2022/06/04 09:07:40;;;;;;;6.03;4.90;;;896.00;1280.00;;;;;;4930734;29;20054;-72
2022/06/04 09:10:15;;;;;;;6.13;5.00;;;871.10;1280.00;;;;;;4930758;29;20051;-68
2022/06/04 09:12:55;;;;;;;7.05;4.95;;;871.10;1305.60;;;;;;4930610;29;20067;-68
2022/06/04 09:15:29;;;;;;;5.68;4.63;;;870.70;1356.80;;;;;;4930347;29;20027;-67
2022/06/04 09:18:01;;;;;;;8.55;5.10;;;870.50;1305.60;;;;;;4930531;29;20036;-72
2022/06/04 09:20:43;;;;;;;4.80;4.30;;;870.70;1305.60;;;;;;4930524;29;20064;-65
2022/06/04 09:23:40;;;;;;;5.28;4.47;;;870.70;1305.60;;;;;;4930574;29;20032;-65
2022/06/04 09:26:14;;;;;;;7.80;4.85;;;870.70;1254.40;;;;;;4918573;29;20491;-67
2022/06/04 09:29:04;;;;;;;6.93;4.70;;;870.50;1356.80;;;;;;4930419;29;20036;-70
2022/06/04 09:31:57;;;;;;;7.45;5.20;;;845.70;1356.80;;;;;;4930494;29;20119;-69
2022/06/04 09:34:26;;;;;;;10.45;5.32;;;845.60;1382.40;;;;;;4930389;29;20188;-67
2022/06/04 09:36:52;;;;;;;10.07;4.43;;;870.50;1305.60;;;;;;4949036;29;20075;-72
2022/06/04 09:39:28;;;;;;;6.32;4.90;;;845.70;1356.80;;;;;;4949525;29;20448;-71
2022/06/04 09:41:58;;;;;;;7.25;5.13;;;845.50;1356.80;;;;;;4955970;28;20469;-69
2022/06/04 09:44:25;;;;;;;7.93;5.45;;;845.60;1356.80;;;;;;5029637;28;20096;-72
2022/06/04 09:47:07;;;;;;;7.43;5.28;;;845.70;1356.80;;;;;;5029409;28;20029;-66
2022/06/04 09:49:35;;;;;;;9.60;5.10;;;845.60;1356.80;;;;;;5029467;28;20125;-65
2022/06/04 09:52:20;;;;;;;9.77;6.10;;;845.70;1382.40;;;;;;5029548;28;20029;-65
2022/06/04 09:54:56;;;;;;;5.10;4.60;;;845.50;1382.40;;;;;;5029683;28;20472;-72
2022/06/04 09:57:36;;;;;;;7.05;4.38;;;845.00;1408.00;;;;;;5029279;28;20108;-72
2022/06/04 10:00:16;;;;;;;5.97;4.32;;;845.10;1408.00;;;;;;5029285;28;20026;-69
2022/06/04 10:02:54;;;;;;;8.23;4.05;;;845.00;1433.60;;;;;;5029277;28;20482;-68
2022/06/04 10:05:23;;;;;;;8.65;4.97;;;844.90;1382.40;;;;;;5029476;28;20033;-65
2022/06/04 10:07:49;;;;;;;6.85;4.20;;;845.00;1408.00;;;;;;5029572;28;20033;-68
2022/06/04 10:10:27;;;;;;;7.85;6.38;;;845.00;1382.40;;;;;;5029167;28;20143;-72
2022/06/04 10:15:46;;;;;;;7.32;5.03;;;845.20;1382.40;;;;;;5031207;28;20177;-70
2022/06/04 10:18:26;;;;;;;7.28;4.85;;;844.90;1433.60;;;;;;5032720;28;20068;-65
2022/06/04 10:20:59;;;;;;;9.68;4.45;;;844.90;1433.60;;;;;;5032519;28;20475;-67
2022/06/04 10:23:26;;;;;;;7.82;4.40;;;845.00;1408.00;;;;;;5032478;28;20033;-71
2022/06/04 10:26:17;;;;;;;6.78;4.57;;;845.00;1433.60;;;;;;5032575;28;20078;-72
2022/06/04 10:29:01;;;;;;;6.82;3.70;;;845.00;1408.00;;;;;;5032478;28;20067;-68
2022/06/04 10:31:44;;;;;;;6.70;3.70;;;844.90;1408.00;;;;;;5032677;28;20109;-68
2022/06/04 10:34:12;;;;;;;4.65;3.70;;;820.10;1433.60;;;;;;5032735;28;20095;-65
2022/06/04 10:36:41;;;;;;;6.28;3.83;;;844.90;1433.60;;;;;;5032644;28;20065;-71
2022/06/04 10:39:15;;;;;;;4.65;3.53;;;845.00;1331.20;;;;;;5032690;28;20042;-72
2022/06/04 10:41:56;;;;;;;14.55;3.67;;;844.90;1382.40;;;;;;5032292;28;20092;-70
2022/06/04 10:44:33;;;;;;;5.38;4.13;;;844.90;1356.80;;;;;;5032345;28;20029;-72
2022/06/04 10:47:06;;;;;;;7.88;3.95;;;845.00;1408.00;;;;;;5032321;28;20025;-72
2022/06/04 10:49:47;;;;;;;6.32;4.00;;;820.10;1382.40;;;;;;5032110;28;20025;-67
2022/06/04 10:52:29;;;;;;;4.78;4.28;;;844.80;1433.60;;;;;;5031997;28;20120;-72
2022/06/04 10:55:15;;;;;;;4.40;3.45;;;819.40;1408.00;;;;;;5031968;28;20468;-67
2022/06/04 10:58:17;;;;;;;11.20;4.40;;;820.10;1305.60;;;;;;5031963;28;20029;-69
2022/06/04 11:01:02;;;;;;;7.22;4.55;;;844.80;1382.40;;;;;;5031974;28;20480;-66
2022/06/04 11:03:36;;;;;;;4.60;4.05;;;844.80;1382.40;;;;;;5032081;28;20037;-68
2022/06/04 11:06:25;;;;;;;5.53;3.85;;;820.10;1356.80;;;;;;5031920;28;20072;-65
2022/06/04 11:08:54;;;;;;;7.80;4.13;;;820.10;1408.00;;;;;;5031618;28;20486;-65
2022/06/04 11:11:37;;;;;;;5.18;4.13;;;820.10;1433.60;;;;;;5031886;28;20498;-65
2022/06/04 11:14:16;;;;;;;5.10;4.00;;;844.90;1382.40;;;;;;5031853;28;20095;-68
2022/06/04 11:17:14;;;;;;;5.20;4.10;;;820.10;1382.40;;;;;;5031631;28;20480;-65
2022/06/04 11:20:06;;;;;;;8.02;4.40;;;844.90;1408.00;;;;;;5009764;28;20045;-73
2022/06/04 11:22:51;;;;;;;5.70;3.90;;;820.10;1408.00;;;;;;5009545;28;20030;-76
2022/06/04 11:25:29;;;;;;;5.25;4.75;;;820.10;1382.40;;;;;;5009645;28;20037;-75
2022/06/04 11:28:05;;;;;;;8.07;4.97;;;844.80;1408.00;;;;;;5009502;28;20032;-65
2022/06/04 11:31:02;;;;;;;7.05;4.47;;;819.80;1459.20;;;;;;5009397;28;20117;-66
2022/06/04 11:33:53;;;;;;;6.13;4.50;;;819.60;1459.20;;;;;;5008960;28;20049;-65
2022/06/04 11:36:45;;;;;;;6.60;4.03;;;819.60;1433.60;;;;;;5009562;28;20474;-75
2022/06/04 11:39:40;;;;;;;5.72;4.20;;;820.00;1408.00;;;;;;5009368;28;20061;-65
2022/06/04 11:42:13;;;;;;;5.55;4.40;;;819.80;1459.20;;;;;;5009610;28;20044;-73
2022/06/04 11:45:03;;;;;;;7.68;4.78;;;819.50;1459.20;;;;;;5009335;28;20046;-73
2022/06/04 11:48:13;;;;;;;5.40;4.22;;;819.60;1459.20;;;;;;5009374;28;20065;-70
2022/06/04 11:51:15;;;;;;;7.60;4.40;;;819.30;1484.80;;;;;;4931839;29;20039;-76
2022/06/04 11:53:43;;;;;;;6.32;4.43;;;819.60;1382.40;;;;;;4931975;29;20040;-65
2022/06/04 11:56:13;;;;;;;7.18;4.90;;;819.60;1433.60;;;;;;4936592;29;20119;-75
2022/06/04 11:58:51;;;;;;;7.32;4.78;;;819.70;1408.00;;;;;;4950830;28;20035;-64
2022/06/04 12:01:53;;;;;;;7.55;4.85;;;819.90;1382.40;;;;;;4950617;29;20051;-64
2022/06/04 12:04:50;;;;;;;6.18;5.07;;;820.00;1408.00;;;;;;4950555;28;20039;-64
2022/06/04 12:07:20;;;;;;;8.40;5.22;;;819.70;1459.20;;;;;;4950209;29;20111;-75
2022/06/04 12:10:01;;;;;;;6.05;4.82;;;819.90;1459.20;;;;;;4950535;29;20052;-75
2022/06/04 12:12:37;;;;;;;7.38;4.55;;;819.80;1459.20;;;;;;4950477;29;20024;-75
2022/06/04 12:15:26;;;;;;;5.88;4.78;;;819.90;1433.60;;;;;;4950241;29;20118;-68
2022/06/04 12:17:59;;;;;;;7.03;4.50;;;819.80;1459.20;;;;;;4950161;29;20163;-74
2022/06/04 12:26:36;;;;;;;5.35;4.45;;;819.90;1459.20;;;;;;5008744;28;20535;-74
2022/06/04 12:29:31;;;;;;;6.57;4.82;;;844.80;1459.20;;;;;;5008399;28;20033;-65
2022/06/04 12:32:03;;;;;;;6.57;4.07;;;820.00;1459.20;;;;;;5008471;28;20033;-76
2022/06/04 12:34:36;;;;;;;5.00;4.50;;;819.80;1459.20;;;;;;5008451;28;20038;-73
2022/06/04 12:37:03;;;;;;;6.68;5.13;;;819.90;1433.60;;;;;;5007709;28;20053;-73
2022/06/04 12:39:31;;;;;;;5.22;4.72;;;819.80;1459.20;;;;;;5007867;28;20516;-75
2022/06/04 12:42:00;;;;;;;6.88;4.97;;;819.70;1459.20;;;;;;5025023;28;20037;-75
2022/06/04 12:44:32;;;;;;;6.05;4.80;;;819.40;1484.80;;;;;;5030196;28;20026;-74
2022/06/04 12:47:25;;;;;;;7.13;4.78;;;819.60;1459.20;;;;;;5030208;28;20026;-76
2022/06/04 12:50:12;;;;;;;7.47;4.45;;;819.80;1433.60;;;;;;5030090;28;20033;-77
2022/06/04 12:52:44;;;;;;;9.45;4.78;;;819.90;1408.00;;;;;;5030228;28;20033;-64
2022/06/04 12:55:16;;;;;;;7.07;5.32;;;820.00;1433.60;;;;;;5030167;28;20017;-65